createdAt,value
2018-08-17T00:01:35.283Z,101446.74
2018-08-17T00:04:12.199Z,101443.06
2018-08-17T00:06:48.043Z,101450.62
2018-08-17T00:11:33.663Z,101446.06
2018-08-17T00:14:10.076Z,101438.70
2018-08-17T00:16:46.143Z,101438.17
2018-08-17T00:19:22.199Z,101439.35
2018-08-17T00:21:58.095Z,101436.67
2018-08-17T00:24:33.965Z,101435.83
2018-08-17T00:27:10.160Z,101433.45
2018-08-17T00:29:46.267Z,101432.64
2018-08-17T00:32:22.108Z,101435.14
2018-08-17T00:34:58.115Z,101428.62
2018-08-17T00:37:53.478Z,101434.14
2018-08-17T00:40:29.501Z,101438.33
2018-08-17T00:43:05.301Z,101436.98
2018-08-17T00:45:41.004Z,101433.95
2018-08-17T00:48:17.296Z,101434.45
2018-08-17T00:50:53.131Z,101432.92
2018-08-17T00:53:29.035Z,101439.48
2018-08-17T00:56:04.966Z,101441.64
2018-08-17T01:00:55.724Z,101437.61
2018-08-17T01:03:31.751Z,101435.77
2018-08-17T01:06:07.673Z,101432.77
2018-08-17T01:08:43.064Z,101424.03
2018-08-17T01:11:19.163Z,101418.81
2018-08-17T01:13:55.101Z,101417.63
2018-08-17T01:16:31.064Z,101423.00
2018-08-17T01:19:13.580Z,101424.84
2018-08-17T01:21:49.089Z,101421.50
2018-08-17T01:24:25.158Z,101419.81
2018-08-17T01:27:01.948Z,101423.84
2018-08-17T01:29:37.709Z,101426.87
2018-08-17T01:32:13.550Z,101428.53
2018-08-17T01:34:49.477Z,101432.55
2018-08-17T01:37:25.468Z,101428.88
2018-08-17T01:40:01.430Z,101432.40
2018-08-17T01:42:37.669Z,101436.27
2018-08-17T01:45:13.951Z,101429.93
2018-08-17T01:47:49.842Z,101433.45
2018-08-17T01:50:26.337Z,101431.45
2018-08-17T01:53:02.676Z,101438.70
2018-08-17T01:55:39.201Z,101435.17
2018-08-17T01:58:15.111Z,101433.17
2018-08-17T02:00:51.063Z,101432.33
2018-08-17T02:03:27.104Z,101433.85
2018-08-17T02:06:02.664Z,101434.51
2018-08-17T02:08:38.700Z,101445.77
2018-08-17T02:11:14.633Z,101441.40
2018-08-17T02:13:50.558Z,101445.11
2018-08-17T02:16:26.331Z,101453.01
2018-08-17T02:20:23.540Z,101450.34
2018-08-17T02:22:59.347Z,101448.48
2018-08-17T02:25:35.038Z,101451.69
2018-08-17T02:28:10.547Z,101452.69
2018-08-17T02:30:46.105Z,101451.53
2018-08-17T02:33:22.054Z,101459.58
2018-08-17T02:35:58.031Z,101456.23
2018-08-17T02:38:33.783Z,101460.41
2018-08-17T02:41:09.461Z,101458.57
2018-08-17T02:43:45.060Z,101453.20
2018-08-17T02:46:21.014Z,101456.39
2018-08-17T02:48:56.703Z,101460.41
2018-08-17T02:51:32.686Z,101458.57
2018-08-17T02:54:08.347Z,101464.97
2018-08-17T02:56:44.331Z,101472.67
2018-08-17T02:59:20.359Z,101467.80
2018-08-17T03:01:55.838Z,101472.33
2018-08-17T03:05:30.368Z,101477.37
2018-08-17T03:08:06.354Z,101481.23
2018-08-17T03:10:41.800Z,101479.58
2018-08-17T03:13:17.687Z,101486.78
2018-08-17T03:15:53.531Z,101488.28
2018-08-17T03:18:29.353Z,101486.28
2018-08-17T03:21:05.077Z,101492.01
2018-08-17T03:23:41.730Z,101494.34
2018-08-17T03:26:17.685Z,101494.84
2018-08-17T03:28:53.397Z,101496.19
2018-08-17T03:31:29.388Z,101493.16
2018-08-17T03:34:06.539Z,101497.67
2018-08-17T03:36:42.041Z,101496.52
2018-08-17T03:39:18.057Z,101494.83
2018-08-17T03:41:54.069Z,101492.64
2018-08-17T03:44:29.678Z,101492.82
2018-08-17T03:47:05.355Z,101498.19
2018-08-17T03:49:41.378Z,101500.20
2018-08-17T03:52:17.251Z,101505.57
2018-08-17T03:57:48.091Z,101505.42
2018-08-17T04:00:24.039Z,101509.92
2018-08-17T04:02:59.893Z,101520.66
2018-08-17T04:05:35.604Z,101512.97
2018-08-17T04:08:11.385Z,101526.72
2018-08-17T04:10:47.385Z,101539.28
2018-08-17T04:13:23.132Z,101534.91
2018-08-17T04:15:59.032Z,101538.94
2018-08-17T04:18:35.014Z,101539.43
2018-08-17T04:21:10.716Z,101540.45
2018-08-17T04:24:24.122Z,101555.22
2018-08-17T04:26:59.713Z,101561.75
2018-08-17T04:29:37.143Z,101562.59
2018-08-17T04:32:12.868Z,101571.63
2018-08-17T04:34:48.668Z,101575.16
2018-08-17T04:37:24.570Z,101576.67
2018-08-17T04:40:00.387Z,101570.64
2018-08-17T04:42:36.097Z,101574.98
2018-08-17T04:46:42.394Z,101574.98
2018-08-17T04:50:36.408Z,101568.29
2018-08-17T04:53:12.634Z,101573.48
2018-08-17T04:55:48.075Z,101571.50
2018-08-17T04:58:23.591Z,101579.86
2018-08-17T05:00:59.709Z,101579.19
2018-08-17T05:03:35.588Z,101585.89
2018-08-17T05:06:11.384Z,101588.92
2018-08-17T05:08:47.071Z,101584.55
2018-08-17T05:11:22.705Z,101591.08
2018-08-17T05:13:58.582Z,101595.45
2018-08-17T05:16:34.224Z,101595.13
2018-08-17T05:19:10.157Z,101599.81
2018-08-17T05:21:45.964Z,101603.31
2018-08-17T05:24:21.769Z,101604.51
2018-08-17T05:29:06.890Z,101594.45
2018-08-17T05:31:42.682Z,101602.00
2018-08-17T05:34:18.425Z,101607.19
2018-08-17T05:36:54.042Z,101610.86
2018-08-17T05:39:29.806Z,101615.89
2018-08-17T05:42:05.442Z,101608.03
2018-08-17T05:44:41.318Z,101604.81
2018-08-17T05:47:17.255Z,101605.66
2018-08-17T05:49:52.884Z,101603.48
2018-08-17T05:53:08.409Z,101604.83
2018-08-17T05:55:44.237Z,101600.13
2018-08-17T05:58:19.998Z,101607.36
2018-08-17T06:00:55.755Z,101611.88
2018-08-17T06:03:31.349Z,101612.55
2018-08-17T06:06:07.189Z,101613.05
2018-08-17T06:08:43.119Z,101612.55
2018-08-17T06:11:19.711Z,101608.17
2018-08-17T06:13:55.434Z,101610.36
2018-08-17T06:16:31.252Z,101607.86
2018-08-17T06:21:17.304Z,101609.69
2018-08-17T06:24:56.912Z,101611.53
2018-08-17T06:27:33.706Z,101608.53
2018-08-17T06:30:12.415Z,101609.52
2018-08-17T06:32:49.337Z,101605.00
2018-08-17T06:35:25.987Z,101607.19
2018-08-17T06:38:03.444Z,101610.36
2018-08-17T06:40:39.831Z,101604.81
2018-08-17T06:43:17.209Z,101602.98
2018-08-17T06:45:54.826Z,101606.16
2018-08-17T06:48:32.541Z,101606.83
2018-08-17T06:51:09.358Z,101610.84
2018-08-17T06:53:46.196Z,101612.19
2018-08-17T06:56:23.750Z,101612.19
2018-08-17T06:59:00.824Z,101611.52
2018-08-17T07:01:37.566Z,101608.17
2018-08-17T07:04:14.776Z,101607.84
2018-08-17T07:06:52.619Z,101616.39
2018-08-17T07:09:30.083Z,101611.20
2018-08-17T07:12:06.899Z,101613.22
2018-08-17T07:14:43.774Z,101603.66
2018-08-17T07:17:20.760Z,101614.55
2018-08-17T07:19:57.614Z,101615.05
2018-08-17T07:22:34.440Z,101617.55
2018-08-17T07:25:11.235Z,101624.26
2018-08-17T07:27:48.834Z,101619.59
2018-08-17T07:30:26.455Z,101626.63
2018-08-17T07:33:03.432Z,101627.64
2018-08-17T07:35:40.493Z,101619.59
2018-08-17T07:38:17.264Z,101620.09
2018-08-17T07:40:54.724Z,101620.09
2018-08-17T07:43:31.865Z,101616.56
2018-08-17T07:46:08.451Z,101615.22
2018-08-17T07:48:45.318Z,101615.56
2018-08-17T07:51:23.137Z,101607.52
2018-08-17T07:54:00.635Z,101611.20
2018-08-17T07:56:38.204Z,101597.47
2018-08-17T07:59:15.464Z,101593.76
2018-08-17T08:01:52.123Z,101595.95
2018-08-17T08:04:29.778Z,101592.91
2018-08-17T08:07:07.407Z,101585.89
2018-08-17T08:09:45.050Z,101589.07
2018-08-17T08:12:21.768Z,101590.41
2018-08-17T08:14:59.633Z,101594.61
2018-08-17T08:18:20.106Z,101595.44
2018-08-17T08:20:58.188Z,101600.65
2018-08-17T08:23:36.545Z,101601.99
2018-08-17T08:26:13.685Z,101598.47
2018-08-17T08:28:50.445Z,101603.83
2018-08-17T08:31:27.367Z,101598.64
2018-08-17T08:34:04.884Z,101595.11
2018-08-17T08:36:41.582Z,101606.69
2018-08-17T08:39:18.652Z,101602.31
2018-08-17T08:41:55.628Z,101603.83
2018-08-17T08:44:32.262Z,101607.36
2018-08-17T08:47:10.464Z,101608.84
2018-08-17T08:49:47.570Z,101611.03
2018-08-17T08:52:24.860Z,101608.84
2018-08-17T08:57:22.831Z,101608.53
2018-08-17T08:59:59.893Z,101607.19
2018-08-17T09:02:36.764Z,101604.66
2018-08-17T09:05:14.658Z,101611.21
2018-08-17T09:07:51.650Z,101603.84
2018-08-17T09:10:28.908Z,101604.33
2018-08-17T09:13:05.598Z,101606.17
2018-08-17T09:15:42.200Z,101604.52
2018-08-17T09:18:19.966Z,101605.85
2018-08-17T09:20:57.721Z,101606.84
2018-08-17T09:23:35.185Z,101606.34
2018-08-17T09:26:12.500Z,101602.47
2018-08-17T09:28:49.822Z,101607.83
2018-08-17T09:31:26.382Z,101608.68
2018-08-17T09:34:03.658Z,101611.36
2018-08-17T09:36:40.505Z,101609.17
2018-08-17T09:39:17.600Z,101610.52
2018-08-17T09:41:55.193Z,101603.14
2018-08-17T09:44:32.302Z,101601.98
2018-08-17T09:47:09.509Z,101605.51
2018-08-17T09:49:46.517Z,101603.50
2018-08-17T09:52:23.856Z,101611.86
2018-08-17T09:55:00.902Z,101609.17
2018-08-17T09:57:37.713Z,101609.53
2018-08-17T10:00:15.739Z,101612.21
2018-08-17T10:02:56.424Z,101609.67
2018-08-17T10:05:37.555Z,101605.66
2018-08-17T10:08:18.074Z,101604.49
2018-08-17T10:10:55.285Z,101604.67
2018-08-17T10:13:32.262Z,101605.66
2018-08-17T10:16:09.223Z,101601.64
2018-08-17T10:18:46.229Z,101605.16
2018-08-17T10:21:23.439Z,101604.31
2018-08-17T10:24:00.085Z,101604.81
2018-08-17T10:26:36.997Z,101593.09
2018-08-17T10:29:14.062Z,101597.30
2018-08-17T10:31:51.834Z,101599.13
2018-08-17T10:34:29.400Z,101590.24
2018-08-17T10:37:06.909Z,101591.58
2018-08-17T10:39:44.176Z,101589.08
2018-08-17T10:42:21.178Z,101590.42
2018-08-17T10:44:58.964Z,101590.91
2018-08-17T10:47:35.780Z,101583.37
2018-08-17T10:50:17.770Z,101589.58
2018-08-17T10:52:55.947Z,101589.22
2018-08-17T10:55:43.416Z,101588.41
2018-08-17T10:58:21.076Z,101584.21
2018-08-17T11:00:58.506Z,101588.41
2018-08-17T11:03:36.063Z,101591.91
2018-08-17T11:06:13.480Z,101591.59
2018-08-17T11:08:51.786Z,101595.78
2018-08-17T11:11:28.441Z,101592.75
2018-08-17T11:14:06.130Z,101593.59
2018-08-17T11:16:43.576Z,101589.72
2018-08-17T11:19:20.869Z,101590.56
2018-08-17T11:21:58.790Z,101591.41
2018-08-17T11:24:35.320Z,101595.44
2018-08-17T11:27:12.881Z,101599.45
2018-08-17T11:29:50.261Z,101595.22
2018-08-17T11:32:28.420Z,101597.06
2018-08-17T11:35:05.770Z,101595.72
2018-08-17T11:37:43.084Z,101598.08
2018-08-17T11:40:20.942Z,101592.72
2018-08-17T11:42:58.837Z,101597.23
2018-08-17T11:45:36.072Z,101589.69
2018-08-17T11:48:13.307Z,101597.73
2018-08-17T11:50:51.457Z,101596.91
2018-08-17T11:53:28.817Z,101590.71
2018-08-17T11:56:06.369Z,101594.38
2018-08-17T11:58:43.485Z,101595.89
2018-08-17T12:01:24.868Z,101589.52
2018-08-17T12:04:02.262Z,101588.70
2018-08-17T12:06:39.294Z,101586.52
2018-08-17T12:09:15.945Z,101585.67
2018-08-17T12:11:53.065Z,101584.02
2018-08-17T12:14:30.370Z,101587.02
2018-08-17T12:17:07.435Z,101582.14
2018-08-17T12:19:44.523Z,101580.31
2018-08-17T12:22:22.094Z,101587.02
2018-08-17T12:24:58.945Z,101588.03
2018-08-17T12:27:35.719Z,101581.48
2018-08-17T12:30:14.101Z,101584.16
2018-08-17T12:32:51.895Z,101581.65
2018-08-17T12:35:29.503Z,101587.19
2018-08-17T12:38:11.275Z,101586.34
2018-08-17T12:40:53.280Z,101582.50
2018-08-17T12:43:33.875Z,101582.14
2018-08-17T12:46:10.736Z,101583.13
2018-08-17T12:48:47.465Z,101588.34
2018-08-17T12:51:24.866Z,101589.34
2018-08-17T12:54:01.576Z,101589.02
2018-08-17T12:56:38.932Z,101582.81
2018-08-17T12:59:16.316Z,101578.44
2018-08-17T13:01:54.789Z,101576.43
2018-08-17T13:04:31.954Z,101575.09
2018-08-17T13:07:08.964Z,101577.77
2018-08-17T13:09:45.347Z,101575.62
2018-08-17T13:12:22.561Z,101578.79
2018-08-17T13:14:59.026Z,101581.79
2018-08-17T13:17:39.824Z,101581.30
2018-08-17T13:20:17.347Z,101583.66
2018-08-17T13:22:54.133Z,101584.47
2018-08-17T13:25:32.090Z,101580.62
2018-08-17T13:28:08.724Z,101582.95
2018-08-17T13:30:45.854Z,101579.95
2018-08-17T13:33:23.118Z,101582.28
2018-08-17T13:36:00.348Z,101588.31
2018-08-17T13:38:37.450Z,101582.45
2018-08-17T13:41:14.077Z,101588.66
2018-08-17T13:43:51.362Z,101590.98
2018-08-17T13:46:28.311Z,101595.00
2018-08-17T13:49:05.885Z,101599.55
2018-08-17T13:51:43.272Z,101595.67
2018-08-17T13:54:20.713Z,101606.88
2018-08-17T13:56:58.346Z,101601.88
2018-08-17T13:59:35.825Z,101611.25
2018-08-17T14:02:13.078Z,101607.41
2018-08-17T14:04:49.589Z,101603.39
2018-08-17T14:07:27.117Z,101607.41
2018-08-17T14:10:03.528Z,101608.40
2018-08-17T14:12:41.148Z,101612.41
2018-08-17T14:15:18.308Z,101612.09
2018-08-17T14:17:56.109Z,101614.91
2018-08-17T14:20:32.910Z,101622.11
2018-08-17T14:23:09.486Z,101623.62
2018-08-17T14:25:46.328Z,101621.43
2018-08-17T14:28:24.622Z,101621.43
2018-08-17T14:31:01.901Z,101623.44
2018-08-17T14:33:39.259Z,101623.79
2018-08-17T14:36:15.785Z,101629.64
2018-08-17T14:38:53.856Z,101622.63
2018-08-17T14:41:31.371Z,101625.94
2018-08-17T14:44:08.264Z,101635.17
2018-08-17T14:46:44.982Z,101635.84
2018-08-17T14:49:21.349Z,101642.85
2018-08-17T14:51:58.360Z,101640.84
2018-08-17T14:54:35.330Z,101641.87
2018-08-17T14:57:12.575Z,101641.52
2018-08-17T14:59:49.674Z,101646.20
2018-08-17T15:02:27.144Z,101640.17
2018-08-17T15:05:04.583Z,101640.17
2018-08-17T15:07:41.869Z,101641.52
2018-08-17T15:10:20.129Z,101645.53
2018-08-17T15:12:58.530Z,101641.38
2018-08-17T15:15:33.516Z,101641.52
2018-08-17T15:18:10.558Z,101643.20
2018-08-17T15:20:48.326Z,101646.87
2018-08-17T15:23:25.485Z,101646.38
2018-08-17T15:26:03.371Z,101647.89
2018-08-17T15:28:41.066Z,101649.23
2018-08-17T15:31:18.649Z,101646.69
2018-08-17T15:33:55.682Z,101645.03
2018-08-17T15:36:32.402Z,101644.67
2018-08-17T15:39:10.168Z,101651.05
2018-08-17T15:41:49.371Z,101655.06
2018-08-17T15:44:28.030Z,101655.91
2018-08-17T15:47:05.533Z,101660.07
2018-08-17T15:49:43.113Z,101650.02
2018-08-17T15:52:19.756Z,101653.01
2018-08-17T15:54:57.504Z,101651.34
2018-08-17T15:57:34.509Z,101648.92
2018-08-17T16:00:16.492Z,101648.41
2018-08-17T16:02:52.403Z,101650.55
2018-08-17T16:05:28.353Z,101654.06
2018-08-17T16:08:04.884Z,101649.86
2018-08-17T16:10:40.365Z,101648.69
2018-08-17T16:13:16.183Z,101651.02
2018-08-17T16:15:51.987Z,101646.81
2018-08-17T16:18:27.893Z,101647.97
2018-08-17T16:21:03.873Z,101632.73
2018-08-17T16:23:39.576Z,101631.56
2018-08-17T16:26:15.297Z,101627.69
2018-08-17T16:28:51.155Z,101634.91
2018-08-17T16:31:26.865Z,101627.69
2018-08-17T16:34:02.785Z,101633.89
2018-08-17T16:36:42.636Z,101632.23
2018-08-17T16:39:19.548Z,101624.69
2018-08-17T16:41:55.312Z,101625.67
2018-08-17T16:44:30.956Z,101619.48
2018-08-17T16:47:06.462Z,101621.47
2018-08-17T16:49:42.353Z,101624.67
2018-08-17T16:52:18.057Z,101625.48
2018-08-17T16:54:55.152Z,101627.18
2018-08-17T16:57:30.889Z,101631.52
2018-08-17T17:00:06.813Z,101618.14
2018-08-17T17:02:42.973Z,101621.52
2018-08-17T17:05:18.954Z,101608.81
2018-08-17T17:07:54.961Z,101612.98
2018-08-17T17:10:35.013Z,101609.81
2018-08-17T17:13:10.881Z,101608.34
2018-08-17T17:15:46.619Z,101607.68
2018-08-17T17:18:22.514Z,101605.98
2018-08-17T17:20:56.604Z,101602.65
2018-08-17T17:23:32.311Z,101603.84
2018-08-17T17:26:08.852Z,101607.88
2018-08-17T17:28:44.792Z,101600.17
2018-08-17T17:31:23.984Z,101597.50
2018-08-17T17:33:59.937Z,101590.14
2018-08-17T17:36:35.921Z,101588.67
2018-08-17T17:39:15.663Z,101594.03
2018-08-17T17:41:52.820Z,101598.23
2018-08-17T17:44:30.084Z,101591.23
2018-08-17T17:47:07.684Z,101596.27
2018-08-17T17:49:44.169Z,101602.30
2018-08-17T17:52:21.688Z,101600.30
2018-08-17T17:54:57.960Z,101597.97
2018-08-17T17:57:35.023Z,101595.12
2018-08-17T18:00:12.849Z,101595.97
2018-08-17T18:02:51.204Z,101592.27
2018-08-17T18:05:28.960Z,101597.98
2018-08-17T18:08:12.818Z,101595.13
2018-08-17T18:10:50.574Z,101593.30
2018-08-17T18:13:27.529Z,101591.95
2018-08-17T18:16:03.969Z,101589.10
2018-08-17T18:18:41.205Z,101590.80
2018-08-17T18:21:18.221Z,101587.94
2018-08-17T18:24:13.559Z,101582.94
2018-08-17T18:26:54.215Z,101583.61
2018-08-17T18:29:31.072Z,101573.74
2018-08-17T18:32:08.541Z,101572.89
2018-08-17T18:34:45.867Z,101567.86
2018-08-17T18:37:22.109Z,101566.52
2018-08-17T18:39:59.957Z,101568.21
2018-08-17T18:42:37.175Z,101566.87
2018-08-17T18:45:14.340Z,101561.83
2018-08-17T18:47:51.612Z,101563.88
2018-08-17T18:50:29.018Z,101548.61
2018-08-17T18:53:06.233Z,101558.34
2018-08-17T18:55:43.606Z,101554.82
2018-08-17T18:58:21.012Z,101556.83
2018-08-17T19:00:58.223Z,101558.52
2018-08-17T19:03:35.164Z,101554.01
2018-08-17T19:06:12.584Z,101554.01
2018-08-17T19:08:49.596Z,101550.66
2018-08-17T19:11:26.343Z,101544.95
2018-08-17T19:14:03.662Z,101546.11
2018-08-17T19:16:41.228Z,101545.13
2018-08-17T19:19:18.892Z,101543.78
2018-08-17T19:21:56.259Z,101541.28
2018-08-17T19:24:33.244Z,101540.93
2018-08-17T19:27:11.263Z,101539.09
2018-08-17T19:29:48.833Z,101535.75
2018-08-17T19:35:25.746Z,101535.57
2018-08-17T19:38:03.459Z,101533.73
2018-08-17T19:40:40.846Z,101526.72
2018-08-17T19:43:18.705Z,101531.91
2018-08-17T19:45:56.425Z,101530.07
2018-08-17T19:48:33.687Z,101526.72
2018-08-17T19:51:14.444Z,101530.56
2018-08-17T19:53:51.912Z,101528.73
2018-08-17T19:56:29.694Z,101535.74
2018-08-17T19:59:07.111Z,101521.35
2018-08-17T20:01:44.482Z,101516.84
2018-08-17T20:04:22.106Z,101515.50
2018-08-17T20:06:59.472Z,101515.50
2018-08-17T20:09:36.830Z,101510.31
2018-08-17T20:12:15.021Z,101510.63
2018-08-17T20:14:52.471Z,101510.45
2018-08-17T20:17:30.049Z,101505.94
2018-08-17T20:20:07.449Z,101501.92
2018-08-17T20:22:44.717Z,101494.55
2018-08-17T20:25:23.157Z,101496.23
2018-08-17T20:28:00.690Z,101486.50
2018-08-17T20:30:38.244Z,101489.36
2018-08-17T20:33:35.381Z,101488.86
2018-08-17T20:36:14.505Z,101486.88
2018-08-17T20:38:52.385Z,101488.22
2018-08-17T20:41:30.056Z,101482.51
2018-08-17T20:44:08.401Z,101480.18
2018-08-17T20:46:46.396Z,101482.68
2018-08-17T20:49:23.823Z,101481.02
2018-08-17T20:52:03.668Z,101481.19
2018-08-17T20:54:40.845Z,101478.83
2018-08-17T20:57:18.306Z,101472.12
2018-08-17T20:59:55.798Z,101475.16
2018-08-17T21:02:33.279Z,101471.98
2018-08-17T21:05:11.403Z,101468.77
2018-08-17T21:07:49.086Z,101469.44
2018-08-17T21:10:26.782Z,101467.60
2018-08-17T21:13:04.400Z,101462.59
2018-08-17T21:15:41.842Z,101466.92
2018-08-17T21:18:19.604Z,101465.94
2018-08-17T21:20:57.519Z,101464.91
2018-08-17T21:23:35.184Z,101459.40
2018-08-17T21:26:12.820Z,101463.42
2018-08-17T21:28:50.321Z,101461.90
2018-08-17T21:31:29.401Z,101465.42
2018-08-17T21:34:06.825Z,101459.88
2018-08-17T21:36:44.641Z,101454.88
2018-08-17T21:39:22.453Z,101456.03
2018-08-17T21:41:58.012Z,101456.03
2018-08-17T21:44:35.276Z,101455.00
2018-08-17T21:47:12.127Z,101453.52
2018-08-17T21:49:49.853Z,101449.00
2018-08-17T21:52:27.885Z,101452.84
2018-08-17T21:55:06.636Z,101450.16
2018-08-17T21:57:44.070Z,101446.98
2018-08-17T22:00:34.063Z,101454.84
2018-08-17T22:03:28.887Z,101449.80
2018-08-17T22:06:05.859Z,101442.94
2018-08-17T22:08:43.983Z,101441.59
2018-08-17T22:11:32.920Z,101440.26
2018-08-17T22:14:10.795Z,101437.74
2018-08-17T22:16:48.877Z,101433.72
2018-08-17T22:19:42.354Z,101438.23
2018-08-17T22:22:21.085Z,101436.72
2018-08-17T22:24:58.980Z,101429.83
2018-08-17T22:27:36.903Z,101428.17
2018-08-17T22:30:24.631Z,101424.47
2018-08-17T22:33:02.080Z,101420.79
2018-08-17T22:35:39.593Z,101420.61
2018-08-17T22:38:16.909Z,101420.11
2018-08-17T22:40:54.209Z,101413.75
2018-08-17T22:43:31.622Z,101412.72
2018-08-17T22:46:11.427Z,101411.23
2018-08-17T22:48:48.887Z,101406.68
2018-08-17T22:51:26.301Z,101405.19
2018-08-17T22:54:04.218Z,101406.00
2018-08-17T22:56:41.734Z,101396.61
2018-08-17T22:59:20.301Z,101398.80
2018-08-17T23:01:57.611Z,101393.44
2018-08-17T23:04:35.921Z,101389.76
2018-08-17T23:07:13.635Z,101388.41
2018-08-17T23:09:51.423Z,101377.50
2018-08-17T23:12:28.881Z,101378.84
2018-08-17T23:15:07.274Z,101372.98
2018-08-17T23:17:47.298Z,101372.48
2018-08-17T23:20:29.070Z,101373.64
2018-08-17T23:23:08.569Z,101365.59
2018-08-17T23:25:46.466Z,101366.94
2018-08-17T23:28:24.133Z,101367.25
2018-08-17T23:31:01.755Z,101367.59
2018-08-17T23:33:40.474Z,101367.59
2018-08-17T23:36:18.886Z,101372.77
2018-08-17T23:38:58.612Z,101374.11
2018-08-17T23:41:37.501Z,101378.98
2018-08-17T23:44:15.336Z,101373.12
2018-08-17T23:46:51.919Z,101373.12
2018-08-17T23:49:29.730Z,101370.44
2018-08-17T23:52:07.266Z,101371.59
2018-08-17T23:54:47.719Z,101367.41
2018-08-17T23:57:24.488Z,101363.05
